KHQM/HQM METAR and TAF weather

Enter ICAO airport designator
Station Type Date Time Source
KHQM METAR 2020/01/23 14:53 UTC NOAA

KHQM 231453Z AUTO 19017KT 5SM RA BR FEW015 BKN022 OVC027 11/11 A2992 RMK AO2 PK WND 19032/1425 SLP134 P0035 60065 T01060106 55003 $


Station Type Date Time Source
KHQM Decoded METAR 2020/01/23 14:53 UTC NOAA

HOQUIAM BOWERMAN AIRPORT, WA, United States (KHQM) 46-58N 123-56W 7M
Jan 23, 2020 - 09:53 AM EST / 2020.01.23 1453 UTC
Wind: from the S (190 degrees) at 20 MPH (17 KT):0
Visibility: 5 mile(s):0
Sky conditions: overcast
Weather: rain; mist
Precipitation last hour: 0.35 inches
Temperature: 51.1 F (10.6 C)
Dew Point: 51.1 F (10.6 C)
Relative Humidity: 100%
Pressure (altimeter): 29.92 in. Hg (1013 hPa)
Pressure tendency: 0.01 inches (0.3 hPa) lower than three hours ago
ob: KHQM 231453Z AUTO 19017KT 5SM RA BR FEW015 BKN022 OVC027 11/11 A2992 RMK AO2 PK WND 19032/1425 SLP134 P0035 60065 T01060106 55003
cycle: 15

Station Type Date Time Source
KHQM TAF 2020/01/23 12:34 UTC NOAA

TAF KHQM 231132Z 2312/2412 19016G32KT 5SM -RA BR OVC015
FM231900 17018G25KT 4SM -RA BR OVC007
FM240400 17012KT 4SM -RA BR OVC015

Example: see airport list